Axstal, Sweden

5:03 AM CET on December 21, 2014 (GMT +0100)
Vadstena | Change Station
CLOSE
Current Station
Personal Weather Station
Location: Vadstena, Vadstena
Elevation: 300 ft
Nearby Weather Stations

Elev 300 ft 58.45 °N, 14.90 °E | Updated 2 seconds ago

Clear
Clear
36.0 °F
Feels Like 29 °F
N
10.1
Wind Variable Wind from NNW
Gusts 23.0 mph

Today
High -- | Low -- °F
--% Chance of Precip.
Yesterday
High -- | Low -- °F
Precip. -- in
8:50 AM 3:08 PM
Waning Crescent, 1% visible
Pressure 29.74 in
Visibility 6.2 miles
Clouds
Windchill 29 °F
Dew Point 25 °F
Humidity 63%
Rainfall 0.00 in
Snow Depth Not available.
UV Not available.
Pollen Not available.
Air Quality Not available.
Flu Activity Not available.
METAR ESGR 210350Z AUTO 31004KT 270V350 9999 NCD 01/M03 Q1007

More Conditions Fewer Conditions

Pressure 29.74 in
Visibility 6.2 miles
Clouds
Windchill 29 °F
Dew Point 25 °F
Humidity 63%
Rainfall 0.00 in
Snow Depth Not available.
UV Not available.
Pollen Not available.
Air Quality Not available.
Flu Activity Not available.
METAR ESGR 210350Z AUTO 31004KT 270V350 9999 NCD 01/M03 Q1007

More Conditions Fewer Conditions

10-Day Weather Forecast

Almanac

Astronomy

Dec. 21, 2014 Rise Set
Actual Time
Civil Twilight
Nautical Twilight
Astronomical Twilight
Moon
Length of Visible Light
Length of Day
Tomorrow will be .
, % of the Moon is Illuminated

Today's Extremes

Country Highs Country Lows

Community

WunderPhotos

Upload Photos

1,779,357 photos uploaded!

WunderBlogs® & News

Nearby

Air Quality

  Air Quality AQ Index Pollutant
Not available.

Snow Depth

Station Depth Elevation

Earthquake Activity

City Distance Mag. Time & Date
Minimum magnitude displayed is 2.5.

Coastal Water Temperatures

Place Temperature

Nearby Weather Stations